createdAt,value
2022-08-17T00:00:43.429Z,15.66
2022-08-17T00:05:43.718Z,15.66
2022-08-17T00:10:48.198Z,15.52
2022-08-17T00:15:52.105Z,15.51
2022-08-17T00:20:58.693Z,15.64
2022-08-17T00:26:02.765Z,15.48
2022-08-17T00:31:08.249Z,15.39
2022-08-17T00:36:13.971Z,15.43
2022-08-17T00:41:20.868Z,15.24
2022-08-17T00:46:28.223Z,15.11
2022-08-17T00:51:38.474Z,14.81
2022-08-17T00:56:45.701Z,14.88
2022-08-17T01:01:51.526Z,15.03
2022-08-17T01:06:57.867Z,15.08
2022-08-17T01:12:01.949Z,15.10
2022-08-17T01:17:06.250Z,15.03
2022-08-17T01:22:20.002Z,14.90
2022-08-17T01:27:24.573Z,14.67
2022-08-17T01:32:30.425Z,14.85
2022-08-17T01:37:38.173Z,14.65
2022-08-17T01:42:47.877Z,14.67
2022-08-17T01:47:52.421Z,14.64
2022-08-17T01:53:10.421Z,14.54
2022-08-17T01:58:14.480Z,14.28
2022-08-17T02:03:18.413Z,14.41
2022-08-17T02:08:39.283Z,14.39
2022-08-17T02:13:57.816Z,14.28
2022-08-17T02:19:09.067Z,14.30
2022-08-17T02:24:18.575Z,14.24
2022-08-17T02:29:42.094Z,14.06
2022-08-17T02:34:45.658Z,13.76
2022-08-17T02:39:50.612Z,13.81
2022-08-17T02:44:54.568Z,13.95
2022-08-17T02:49:58.174Z,14.09
2022-08-17T02:55:03.251Z,13.94
2022-08-17T03:00:10.823Z,13.98
2022-08-17T03:05:17.222Z,13.95
2022-08-17T03:10:24.724Z,13.88
2022-08-17T03:15:30.896Z,13.85
2022-08-17T03:20:37.053Z,13.88
2022-08-17T03:25:46.495Z,13.85
2022-08-17T03:30:51.161Z,13.89
2022-08-17T03:35:54.914Z,13.96
2022-08-17T03:41:00.111Z,13.57
2022-08-17T03:46:28.777Z,13.72
2022-08-17T03:51:55.915Z,13.80
2022-08-17T03:57:04.575Z,13.85
2022-08-17T04:02:12.527Z,13.77
2022-08-17T04:07:16.175Z,13.60
2022-08-17T04:12:23.478Z,13.61
2022-08-17T04:17:30.271Z,13.69
2022-08-17T04:22:34.472Z,13.74
2022-08-17T04:27:39.696Z,13.91
2022-08-17T04:33:04.973Z,14.09
2022-08-17T04:38:13.042Z,13.94
2022-08-17T04:43:20.622Z,14.12
2022-08-17T04:48:29.737Z,14.17
2022-08-17T04:53:41.459Z,14.40
2022-08-17T04:58:48.140Z,14.31
2022-08-17T05:03:54.741Z,14.37
2022-08-17T05:08:58.609Z,14.11
2022-08-17T05:14:03.835Z,14.32
2022-08-17T05:19:07.469Z,14.53
2022-08-17T05:24:11.005Z,14.87
2022-08-17T05:29:36.524Z,15.08
2022-08-17T05:34:40.069Z,15.23
2022-08-17T05:39:43.727Z,15.40
2022-08-17T05:44:48.727Z,15.72
2022-08-17T05:49:53.892Z,16.03
2022-08-17T05:55:19.487Z,16.79
2022-08-17T06:00:31.105Z,17.96
2022-08-17T06:06:00.050Z,18.46
2022-08-17T06:11:12.785Z,18.53
2022-08-17T06:16:28.199Z,19.21
2022-08-17T06:21:43.537Z,20.32
2022-08-17T06:26:47.714Z,21.27
2022-08-17T06:31:52.632Z,21.82
2022-08-17T06:37:07.819Z,22.73
2022-08-17T06:43:02.752Z,23.56
2022-08-17T06:47:54.270Z,24.63
2022-08-17T06:53:05.365Z,25.56
2022-08-17T06:58:16.443Z,26.86
2022-08-17T07:03:33.495Z,27.47
2022-08-17T07:08:55.157Z,26.85
2022-08-17T07:14:17.011Z,27.61
2022-08-17T07:19:26.096Z,27.56
2022-08-17T07:24:39.391Z,27.30
2022-08-17T07:29:49.544Z,27.21
2022-08-17T07:35:23.505Z,28.35
2022-08-17T07:40:43.743Z,28.24
2022-08-17T07:46:32.846Z,29.19
2022-08-17T07:51:54.899Z,28.91
2022-08-17T07:57:03.499Z,28.86
2022-08-17T08:02:31.919Z,29.15
2022-08-17T08:07:43.428Z,29.44
2022-08-17T08:12:53.714Z,29.33
2022-08-17T08:17:59.708Z,29.74
2022-08-17T08:23:12.529Z,29.02
2022-08-17T08:28:27.635Z,29.67
2022-08-17T08:33:43.075Z,29.47
2022-08-17T08:38:59.974Z,29.79
2022-08-17T08:45:00.064Z,29.79
2022-08-17T08:50:05.830Z,30.04
2022-08-17T08:55:17.917Z,29.32
2022-08-17T09:00:24.313Z,29.75
2022-08-17T09:05:39.320Z,30.15
2022-08-17T09:10:57.604Z,30.44
2022-08-17T09:16:06.863Z,30.90
2022-08-17T09:21:19.401Z,31.45
2022-08-17T09:26:30.547Z,30.87
2022-08-17T09:31:47.023Z,32.71
2022-08-17T09:37:05.740Z,33.08
2022-08-17T09:42:19.703Z,33.03
2022-08-17T09:47:32.028Z,32.50
2022-08-17T09:52:36.959Z,33.22
2022-08-17T09:58:00.175Z,32.91
2022-08-17T10:03:29.164Z,33.94
2022-08-17T10:08:39.979Z,32.96
2022-08-17T10:13:53.006Z,32.47
2022-08-17T10:19:10.628Z,33.65
2022-08-17T10:24:34.705Z,33.41
2022-08-17T10:29:49.131Z,33.85
2022-08-17T10:35:16.170Z,33.60
2022-08-17T10:40:30.584Z,32.60
2022-08-17T10:45:47.642Z,31.54
2022-08-17T10:51:01.514Z,30.87
2022-08-17T10:56:26.259Z,32.02
2022-08-17T11:02:06.468Z,32.76
2022-08-17T11:07:18.837Z,32.06
2022-08-17T11:12:37.547Z,32.44
2022-08-17T11:18:07.271Z,32.04
2022-08-17T11:23:30.560Z,33.24
2022-08-17T11:28:46.556Z,32.88
2022-08-17T11:33:59.423Z,32.39
2022-08-17T11:39:07.973Z,32.71
2022-08-17T11:44:29.234Z,33.22
2022-08-17T11:50:12.028Z,33.66
2022-08-17T11:55:50.804Z,33.45
2022-08-17T12:01:03.040Z,33.44
2022-08-17T12:06:32.949Z,33.73
2022-08-17T12:11:55.159Z,34.55
2022-08-17T12:17:11.256Z,34.91
2022-08-17T12:22:23.560Z,33.78
2022-08-17T12:27:50.731Z,33.77
2022-08-17T12:32:55.958Z,33.77
2022-08-17T12:38:02.359Z,32.83
2022-08-17T12:43:08.889Z,33.23
2022-08-17T12:48:14.140Z,32.22
2022-08-17T12:53:24.776Z,32.50
2022-08-17T12:58:32.889Z,32.10
2022-08-17T13:03:41.927Z,32.23
2022-08-17T13:08:49.054Z,32.35
2022-08-17T13:13:56.057Z,32.22
2022-08-17T13:19:09.139Z,32.08
2022-08-17T13:24:20.664Z,32.09
2022-08-17T13:29:28.239Z,32.25
2022-08-17T13:34:38.687Z,31.46
2022-08-17T13:40:23.542Z,31.40
2022-08-17T13:45:44.795Z,31.43
2022-08-17T13:51:03.596Z,31.10
2022-08-17T13:56:33.404Z,30.57
2022-08-17T14:01:39.327Z,31.02
2022-08-17T14:06:52.940Z,31.32
2022-08-17T14:12:00.292Z,31.63
2022-08-17T14:17:05.180Z,31.41
2022-08-17T14:22:18.981Z,31.68
2022-08-17T14:27:26.438Z,31.51
2022-08-17T14:32:32.276Z,31.41
2022-08-17T14:37:36.670Z,31.22
2022-08-17T14:42:44.004Z,30.96
2022-08-17T14:47:49.841Z,30.76
2022-08-17T14:52:55.283Z,30.30
2022-08-17T14:58:01.138Z,30.25
2022-08-17T15:03:05.485Z,30.48
2022-08-17T15:08:09.317Z,29.83
2022-08-17T15:13:19.873Z,29.44
2022-08-17T15:18:23.661Z,29.34
2022-08-17T15:23:28.228Z,29.31
2022-08-17T15:28:33.449Z,29.23
2022-08-17T15:33:37.342Z,28.83
2022-08-17T15:38:41.377Z,28.61
2022-08-17T15:43:50.963Z,28.46
2022-08-17T15:48:59.892Z,28.35
2022-08-17T15:54:19.325Z,28.08
2022-08-17T15:59:31.038Z,28.15
2022-08-17T16:04:34.914Z,27.97
2022-08-17T16:09:39.560Z,28.05
2022-08-17T16:14:44.959Z,28.39
2022-08-17T16:19:48.852Z,27.90
2022-08-17T16:24:56.999Z,27.55
2022-08-17T16:30:03.122Z,27.18
2022-08-17T16:35:10.020Z,26.95
2022-08-17T16:40:14.967Z,26.64
2022-08-17T16:45:23.493Z,25.90
2022-08-17T16:50:27.503Z,25.82
2022-08-17T16:55:31.538Z,25.13
2022-08-17T17:00:37.761Z,24.88
2022-08-17T17:05:55.074Z,23.86
2022-08-17T17:11:10.805Z,23.90
2022-08-17T17:16:21.906Z,22.81
2022-08-17T17:21:33.221Z,23.24
2022-08-17T17:27:00.172Z,23.60
2022-08-17T17:32:17.256Z,23.31
2022-08-17T17:37:32.433Z,23.52
2022-08-17T17:42:39.967Z,23.90
2022-08-17T17:47:45.659Z,23.31
2022-08-17T17:53:00.145Z,22.85
2022-08-17T17:58:17.034Z,22.88
2022-08-17T18:03:33.069Z,22.82
2022-08-17T18:08:52.940Z,23.21
2022-08-17T18:14:15.163Z,22.83
2022-08-17T18:19:20.983Z,22.22
2022-08-17T18:24:32.763Z,22.16
2022-08-17T18:29:45.451Z,22.29
2022-08-17T18:34:53.483Z,21.52
2022-08-17T18:39:57.014Z,21.16
2022-08-17T18:45:00.774Z,21.38
2022-08-17T18:55:34.251Z,21.07
2022-08-17T19:00:43.134Z,21.17
2022-08-17T19:05:49.803Z,20.79
2022-08-17T19:10:59.961Z,20.88
2022-08-17T19:16:14.881Z,20.57
2022-08-17T19:21:24.183Z,20.46
2022-08-17T19:26:53.541Z,20.63
2022-08-17T19:31:59.015Z,20.47
2022-08-17T19:37:08.886Z,20.26
2022-08-17T19:42:23.519Z,20.21
2022-08-17T19:47:56.055Z,20.14
2022-08-17T19:53:08.466Z,20.01
2022-08-17T19:58:23.637Z,19.79
2022-08-17T20:03:32.991Z,19.64
2022-08-17T20:08:40.844Z,19.79
2022-08-17T20:13:50.819Z,19.66
2022-08-17T20:19:02.804Z,19.52
2022-08-17T20:24:22.325Z,19.53
2022-08-17T20:29:40.118Z,19.30
2022-08-17T20:34:47.627Z,19.17
2022-08-17T20:40:15.364Z,19.01
2022-08-17T20:45:53.111Z,18.74
2022-08-17T20:51:00.801Z,18.75
2022-08-17T20:56:04.541Z,18.54
2022-08-17T21:01:16.265Z,18.31
2022-08-17T21:06:23.946Z,18.40
2022-08-17T21:12:04.584Z,18.08
2022-08-17T21:17:38.103Z,18.23
2022-08-17T21:22:53.901Z,18.16
2022-08-17T21:28:04.856Z,17.94
2022-08-17T21:33:20.773Z,17.93
2022-08-17T21:38:36.166Z,17.50
2022-08-17T21:43:48.768Z,17.48
2022-08-17T21:48:57.750Z,17.53
2022-08-17T21:54:06.124Z,17.43
2022-08-17T21:59:25.904Z,17.39
2022-08-17T22:04:34.075Z,17.13
2022-08-17T22:09:43.857Z,17.18
2022-08-17T22:14:57.528Z,16.97
2022-08-17T22:20:07.543Z,16.59
2022-08-17T22:25:22.036Z,16.65
2022-08-17T22:30:35.414Z,16.81
2022-08-17T22:35:42.731Z,16.39
2022-08-17T22:40:49.746Z,16.41
2022-08-17T22:45:55.685Z,16.56
2022-08-17T22:51:14.151Z,16.57
2022-08-17T22:56:37.641Z,16.36
2022-08-17T23:01:42.461Z,16.27
2022-08-17T23:06:47.416Z,16.18
2022-08-17T23:11:55.462Z,16.17
2022-08-17T23:17:00.882Z,16.15
2022-08-17T23:22:09.161Z,16.29
2022-08-17T23:27:13.053Z,16.18
2022-08-17T23:32:18.772Z,16.01
2022-08-17T23:37:23.587Z,15.76
2022-08-17T23:42:27.525Z,15.80
2022-08-17T23:47:31.166Z,15.90
2022-08-17T23:52:37.805Z,15.91
2022-08-17T23:57:42.082Z,15.83
